createdAt,value
2019-01-12T00:02:53.905Z,2.67
2019-01-12T00:07:57.433Z,3.67
2019-01-12T00:13:00.881Z,2.47
2019-01-12T00:18:04.618Z,2.37
2019-01-12T00:23:08.062Z,3.30
2019-01-12T00:28:11.527Z,1.87
2019-01-12T00:33:15.008Z,2.77
2019-01-12T00:38:18.464Z,3.13
2019-01-12T00:43:21.907Z,2.43
2019-01-12T00:48:25.363Z,2.80
2019-01-12T00:53:28.994Z,2.27
2019-01-12T00:58:32.776Z,1.90
2019-01-12T01:03:38.193Z,1.83
2019-01-12T01:08:41.339Z,2.90
2019-01-12T01:13:44.862Z,1.83
2019-01-12T01:18:48.403Z,1.33
2019-01-12T01:23:51.915Z,2.20
2019-01-12T01:28:55.355Z,2.37
2019-01-12T01:33:58.824Z,2.87
2019-01-12T01:39:02.259Z,2.87
2019-01-12T01:44:06.082Z,3.70
2019-01-12T01:49:09.684Z,3.07
2019-01-12T01:54:13.289Z,3.33
2019-01-12T01:59:16.723Z,2.83
2019-01-12T02:04:20.356Z,3.70
2019-01-12T02:09:23.799Z,3.03
2019-01-12T02:14:27.267Z,3.60
2019-01-12T02:19:30.699Z,3.53
2019-01-12T02:24:34.142Z,3.33
2019-01-12T02:29:37.597Z,3.70
2019-01-12T02:34:41.457Z,3.13
2019-01-12T02:39:44.991Z,3.67
2019-01-12T02:44:48.410Z,3.73
2019-01-12T02:49:51.950Z,4.37
2019-01-12T02:54:56.016Z,4.60
2019-01-12T02:59:59.739Z,4.17
2019-01-12T03:05:03.608Z,3.97
2019-01-12T03:10:10.060Z,4.63
2019-01-12T03:15:17.538Z,3.90
2019-01-12T03:20:21.056Z,3.60
2019-01-12T03:25:24.559Z,2.50
2019-01-12T03:30:28.000Z,2.93
2019-01-12T03:35:31.424Z,2.40
2019-01-12T03:40:35.047Z,3.40
2019-01-12T03:45:41.337Z,2.80
2019-01-12T03:50:44.758Z,2.43
2019-01-12T03:55:48.204Z,2.70
2019-01-12T04:00:51.658Z,2.80
2019-01-12T04:05:55.151Z,2.30
2019-01-12T04:10:58.649Z,2.70
2019-01-12T04:16:02.433Z,2.67
2019-01-12T04:21:06.158Z,2.80
2019-01-12T04:26:09.634Z,2.77
2019-01-12T04:31:13.251Z,2.90
2019-01-12T04:36:16.782Z,2.77
2019-01-12T04:41:20.228Z,2.80
2019-01-12T04:46:23.706Z,2.80
2019-01-12T04:51:27.544Z,2.53
2019-01-12T04:56:30.986Z,2.43
2019-01-12T05:01:34.431Z,3.43
2019-01-12T05:06:37.895Z,3.67
2019-01-12T05:11:41.329Z,2.93
2019-01-12T05:16:44.759Z,2.60
2019-01-12T05:21:48.281Z,3.60
2019-01-12T05:26:51.767Z,2.97
2019-01-12T05:31:55.573Z,3.27
2019-01-12T05:36:59.034Z,3.53
2019-01-12T05:42:02.796Z,2.83
2019-01-12T05:47:06.241Z,2.90
2019-01-12T05:52:09.687Z,2.63
2019-01-12T05:57:13.127Z,10.03
2019-01-12T06:02:16.611Z,4.83
2019-01-12T06:07:20.080Z,4.03
2019-01-12T06:12:23.573Z,4.80
2019-01-12T06:17:27.468Z,7.03
2019-01-12T06:22:30.925Z,3.93
2019-01-12T06:27:34.381Z,5.63
2019-01-12T06:32:37.837Z,4.63
2019-01-12T06:37:41.266Z,3.70
2019-01-12T06:42:44.769Z,4.30
2019-01-12T06:47:48.212Z,5.77
2019-01-12T06:52:51.658Z,5.67
2019-01-12T06:57:55.084Z,4.93
2019-01-12T07:02:58.526Z,5.60
2019-01-12T07:08:01.980Z,6.83
2019-01-12T07:13:05.421Z,6.60
2019-01-12T07:18:09.116Z,8.00
2019-01-12T07:23:12.560Z,9.30
2019-01-12T07:28:16.014Z,8.87
2019-01-12T07:33:19.452Z,9.73
2019-01-12T07:38:22.887Z,9.03
2019-01-12T07:43:26.330Z,10.20
2019-01-12T07:48:29.802Z,9.77
2019-01-12T07:53:33.230Z,10.70
2019-01-12T07:58:36.690Z,13.10
2019-01-12T08:03:40.194Z,11.33
2019-01-12T08:08:43.633Z,11.53
2019-01-12T08:13:47.091Z,13.83
2019-01-12T08:18:50.522Z,16.43
2019-01-12T08:23:53.977Z,15.13
2019-01-12T08:28:57.410Z,16.43
2019-01-12T08:34:00.863Z,18.27
2019-01-12T08:39:06.390Z,14.87
2019-01-12T08:44:10.125Z,18.27
2019-01-12T08:49:13.574Z,18.03
2019-01-12T08:54:17.034Z,14.80
2019-01-12T08:59:22.122Z,16.53
2019-01-12T09:04:25.544Z,16.60
2019-01-12T09:09:28.977Z,16.63
2019-01-12T09:14:32.417Z,15.80
2019-01-12T09:19:35.852Z,15.90
2019-01-12T09:24:39.288Z,15.87
2019-01-12T09:29:42.732Z,15.83
2019-01-12T09:34:46.246Z,19.27
2019-01-12T09:39:49.807Z,19.77
2019-01-12T09:44:53.183Z,19.67
2019-01-12T09:49:56.616Z,18.77
2019-01-12T09:55:00.042Z,21.57
2019-01-12T10:00:05.739Z,22.10
2019-01-12T10:05:09.603Z,25.07
2019-01-12T10:10:19.832Z,21.70
2019-01-12T10:15:23.491Z,25.70
2019-01-12T10:20:29.990Z,25.10
2019-01-12T10:25:33.504Z,28.73
2019-01-12T10:30:36.938Z,29.57
2019-01-12T10:35:40.387Z,30.23
2019-01-12T10:40:44.451Z,30.13
2019-01-12T10:45:47.883Z,30.27
2019-01-12T10:50:51.336Z,35.43
2019-01-12T10:55:54.784Z,32.47
2019-01-12T11:00:58.226Z,33.27
2019-01-12T11:06:01.679Z,32.90
2019-01-12T11:11:05.678Z,33.97
2019-01-12T11:16:09.117Z,34.13
2019-01-12T11:21:12.651Z,36.77
2019-01-12T11:26:16.101Z,35.93
2019-01-12T11:31:20.014Z,36.83
2019-01-12T11:36:23.576Z,38.70
2019-01-12T11:41:26.999Z,38.13
2019-01-12T11:46:30.454Z,38.23
2019-01-12T11:51:33.970Z,40.43
2019-01-12T11:56:37.400Z,38.07
2019-01-12T12:01:40.836Z,36.27
2019-01-12T12:06:44.292Z,38.13
2019-01-12T12:11:47.738Z,35.90
2019-01-12T12:16:51.189Z,40.07
2019-01-12T12:21:54.637Z,36.03
2019-01-12T12:26:58.079Z,35.93
2019-01-12T12:32:01.524Z,34.63
2019-01-12T12:37:04.970Z,33.90
2019-01-12T12:42:08.407Z,33.67
2019-01-12T12:47:11.924Z,33.13
2019-01-12T12:52:15.417Z,30.30
2019-01-12T12:57:18.881Z,27.63
2019-01-12T13:02:22.326Z,27.67
2019-01-12T13:07:25.753Z,24.90
2019-01-12T13:12:29.379Z,26.67
2019-01-12T13:17:32.833Z,23.37
2019-01-12T13:22:36.275Z,21.67
2019-01-12T13:27:40.168Z,21.40
2019-01-12T13:32:43.748Z,20.30
2019-01-12T13:37:47.777Z,22.00
2019-01-12T13:42:51.225Z,21.83
2019-01-12T13:47:54.835Z,18.77
2019-01-12T13:52:58.298Z,18.00
2019-01-12T13:58:01.719Z,19.50
2019-01-12T14:03:06.423Z,18.07
2019-01-12T14:08:09.855Z,17.77
2019-01-12T14:13:13.290Z,15.27
2019-01-12T14:18:22.615Z,16.20
2019-01-12T14:23:22.128Z,17.77
2019-01-12T14:28:25.537Z,15.77
2019-01-12T14:33:28.993Z,15.73
2019-01-12T14:38:33.899Z,14.13
2019-01-12T14:43:37.459Z,14.50
2019-01-12T14:48:40.870Z,13.20
2019-01-12T14:53:44.284Z,15.03
2019-01-12T14:58:47.742Z,13.37
2019-01-12T15:03:51.194Z,14.27
2019-01-12T15:08:54.625Z,15.13
2019-01-12T15:13:58.055Z,14.40
2019-01-12T15:19:01.490Z,12.33
2019-01-12T15:24:05.133Z,14.50
2019-01-12T15:29:08.628Z,11.50
2019-01-12T15:34:12.002Z,11.53
2019-01-12T15:39:15.446Z,18.30
2019-01-12T15:44:18.883Z,11.40
2019-01-12T15:49:22.319Z,11.63
2019-01-12T15:54:25.766Z,10.30
2019-01-12T15:59:29.201Z,11.37
2019-01-12T16:04:32.647Z,10.40
2019-01-12T16:09:36.101Z,10.00
2019-01-12T16:14:39.504Z,8.97
2019-01-12T16:19:42.947Z,8.73
2019-01-12T16:24:46.650Z,8.07
2019-01-12T16:29:50.094Z,7.27
2019-01-12T16:34:53.531Z,7.37
2019-01-12T16:39:56.978Z,6.50
2019-01-12T16:45:00.422Z,7.07
2019-01-12T16:50:07.539Z,6.47
2019-01-12T16:55:13.121Z,7.07
2019-01-12T17:00:19.229Z,6.43
2019-01-12T17:05:22.987Z,5.03
2019-01-12T17:10:26.500Z,5.77
2019-01-12T17:15:34.673Z,4.70
2019-01-12T17:20:35.106Z,6.30
2019-01-12T17:25:38.525Z,5.60
2019-01-12T17:30:41.952Z,5.47
2019-01-12T17:35:45.455Z,6.77
2019-01-12T17:40:48.893Z,6.20
2019-01-12T17:45:52.314Z,7.17
2019-01-12T17:50:55.754Z,8.27
2019-01-12T17:55:59.193Z,9.10
2019-01-12T18:01:02.639Z,7.93
2019-01-12T18:06:06.157Z,7.50
2019-01-12T18:11:09.644Z,7.07
2019-01-12T18:16:13.099Z,6.60
2019-01-12T18:21:16.624Z,5.70
2019-01-12T18:26:20.080Z,7.57
2019-01-12T18:31:23.578Z,7.37
2019-01-12T18:36:27.004Z,6.87
2019-01-12T18:41:30.565Z,5.63
2019-01-12T18:46:33.981Z,5.73
2019-01-12T18:51:37.426Z,6.60
2019-01-12T18:56:40.937Z,7.57
2019-01-12T19:01:44.414Z,6.03
2019-01-12T19:06:47.856Z,5.07
2019-01-12T19:11:51.561Z,3.53
2019-01-12T19:16:55.835Z,3.23
2019-01-12T19:22:00.532Z,3.50
2019-01-12T19:27:04.184Z,10.43
2019-01-12T19:32:07.629Z,4.50
2019-01-12T19:37:11.064Z,5.57
2019-01-12T19:42:15.642Z,6.10
2019-01-12T19:47:19.201Z,4.80
2019-01-12T19:52:22.654Z,11.10
2019-01-12T19:57:26.162Z,4.20
2019-01-12T20:02:29.675Z,2.43
2019-01-12T20:07:33.088Z,1.57
2019-01-12T20:12:36.652Z,1.10
2019-01-12T20:17:40.110Z,1.57
2019-01-12T20:22:43.623Z,1.30
2019-01-12T20:27:47.048Z,9.33
2019-01-12T20:33:10.082Z,2.30
2019-01-12T20:38:21.996Z,1.30
2019-01-12T20:43:30.970Z,0.97
2019-01-12T20:48:52.238Z,1.70
2019-01-12T20:54:04.320Z,1.50
2019-01-12T20:59:28.093Z,1.97
2019-01-12T21:04:53.339Z,2.23
2019-01-12T21:10:08.803Z,2.57
2019-01-12T21:15:15.900Z,2.80
2019-01-12T21:20:19.296Z,5.97
2019-01-12T21:25:22.740Z,3.67
2019-01-12T21:30:26.178Z,7.23
2019-01-12T21:35:29.600Z,3.10
2019-01-12T21:40:33.064Z,4.90
2019-01-12T21:45:36.589Z,4.90
2019-01-12T21:50:40.103Z,4.73
2019-01-12T21:55:43.545Z,2.60
2019-01-12T22:00:47.001Z,2.77
2019-01-12T22:05:50.429Z,2.37
2019-01-12T22:10:53.872Z,3.17
2019-01-12T22:15:57.306Z,3.97
2019-01-12T22:21:00.735Z,4.33
2019-01-12T22:26:04.162Z,4.47
2019-01-12T22:31:07.584Z,5.50
2019-01-12T22:36:11.031Z,5.17
2019-01-12T22:41:14.471Z,4.20
2019-01-12T22:46:17.901Z,4.33
2019-01-12T22:51:21.389Z,4.17
2019-01-12T22:56:24.845Z,5.10
2019-01-12T23:01:31.423Z,4.43
2019-01-12T23:06:37.735Z,3.37
2019-01-12T23:11:41.184Z,4.93
2019-01-12T23:16:44.618Z,3.40
2019-01-12T23:21:48.359Z,4.50
2019-01-12T23:26:51.794Z,5.40
2019-01-12T23:31:55.285Z,3.37
2019-01-12T23:36:58.725Z,4.80
2019-01-12T23:42:02.179Z,3.93
2019-01-12T23:47:05.634Z,4.40
2019-01-12T23:52:09.061Z,5.50
2019-01-12T23:57:12.549Z,5.43
